Terminal Aerodrome Forecast
Issued by NWS

Home | Current Version | Previous Version | Text Only | Print | Product List | Glossary On
Versions: 1 2 3 4 5 6 7 8 9 10 11 12 13 14 15 16 17 18 19 20 21 22 23 24 25 26 27 28 29 30 31 32 33 34 35 36
000
FTAK31 PAFA 201137
TAFASC
TAF
PASC 201137Z 2012/2112 06005KT 5SM BR OVC005
      TEMPO 2014/2018 1SM BR
     FM201800 04005KT P6SM BKN007
     FM202100 05006KT P6SM SCT015 SCT080
     FM210500 05006KT P6SM BKN015
     FM210900 06006KT 1SM BR OVC005=

USA.gov is the U.S. government's official web portal to all federal, state and local government web resources and services.